Powersville, Georgia
Current Conditions -  °F | °C
As of 1:53 PM on Thursday 18 Dec 2014 (Local Time) from KMCN Reporting Station
Clear Clear  
Wind Chill: 16°   Ceiling: Unl
Heat Index: 16°   Visibility: 10mi
Dew Point: -2°   Wind: 5mph
Humidity: 29%   Direction: 290°WNW
Pressure: 30.1"   Gusts: NA
Location:  32.6425°N, 83.775°W
Report Text: KMCN 181853Z 29004KT 10SM CLR 16/M02 A3010 RMK AO2 SLP190 T01611022
Loading
Personal Weather Stations






























Interactive Weather Map New forecast layout! Learn more

10-Day Weather Forecast

Advertisements
Track Severe Weather on mobile